sensor_id;sensor_type;location;lat;lon;timestamp;P1;durP1;ratioP1;P2;durP2;ratioP2
13061;SDS011;6597;52.218;9.882;2023-04-29T00:00:59;13.40;;;8.43;;
13061;SDS011;6597;52.218;9.882;2023-04-29T00:03:26;13.93;;;8.80;;
13061;SDS011;6597;52.218;9.882;2023-04-29T00:05:56;15.23;;;8.70;;
13061;SDS011;6597;52.218;9.882;2023-04-29T00:08:22;14.53;;;9.07;;
13061;SDS011;6597;52.218;9.882;2023-04-29T00:10:49;17.03;;;9.20;;
13061;SDS011;6597;52.218;9.882;2023-04-29T00:13:15;18.70;;;9.00;;
13061;SDS011;6597;52.218;9.882;2023-04-29T00:15:42;17.60;;;9.53;;
13061;SDS011;6597;52.218;9.882;2023-04-29T00:18:10;15.77;;;9.07;;
13061;SDS011;6597;52.218;9.882;2023-04-29T00:20:38;17.10;;;9.23;;
13061;SDS011;6597;52.218;9.882;2023-04-29T00:23:05;16.60;;;9.70;;
13061;SDS011;6597;52.218;9.882;2023-04-29T00:25:31;19.23;;;9.80;;
13061;SDS011;6597;52.218;9.882;2023-04-29T00:27:58;18.03;;;9.07;;
13061;SDS011;6597;52.218;9.882;2023-04-29T00:30:26;20.17;;;10.40;;
13061;SDS011;6597;52.218;9.882;2023-04-29T00:32:52;15.60;;;9.37;;
13061;SDS011;6597;52.218;9.882;2023-04-29T00:35:20;18.73;;;10.27;;
13061;SDS011;6597;52.218;9.882;2023-04-29T00:37:47;21.83;;;10.60;;
13061;SDS011;6597;52.218;9.882;2023-04-29T00:40:14;19.73;;;11.53;;
13061;SDS011;6597;52.218;9.882;2023-04-29T00:42:41;20.20;;;11.10;;
13061;SDS011;6597;52.218;9.882;2023-04-29T00:45:08;23.13;;;11.53;;
13061;SDS011;6597;52.218;9.882;2023-04-29T00:47:36;24.03;;;12.50;;
13061;SDS011;6597;52.218;9.882;2023-04-29T00:50:03;26.40;;;14.00;;
13061;SDS011;6597;52.218;9.882;2023-04-29T00:52:33;21.30;;;12.60;;
13061;SDS011;6597;52.218;9.882;2023-04-29T00:55:00;28.13;;;13.17;;
13061;SDS011;6597;52.218;9.882;2023-04-29T00:57:27;22.53;;;13.00;;
13061;SDS011;6597;52.218;9.882;2023-04-29T00:59:54;25.73;;;14.07;;
13061;SDS011;6597;52.218;9.882;2023-04-29T01:02:21;24.67;;;12.47;;
13061;SDS011;6597;52.218;9.882;2023-04-29T01:04:49;23.63;;;13.60;;
13061;SDS011;6597;52.218;9.882;2023-04-29T01:07:17;23.63;;;13.83;;
13061;SDS011;6597;52.218;9.882;2023-04-29T01:09:52;26.00;;;13.63;;
13061;SDS011;6597;52.218;9.882;2023-04-29T01:12:28;23.23;;;12.53;;
13061;SDS011;6597;52.218;9.882;2023-04-29T01:15:07;32.17;;;14.77;;
13061;SDS011;6597;52.218;9.882;2023-04-29T01:17:38;27.70;;;14.13;;
13061;SDS011;6597;52.218;9.882;2023-04-29T01:20:08;27.83;;;13.53;;
13061;SDS011;6597;52.218;9.882;2023-04-29T01:22:35;29.20;;;14.37;;
13061;SDS011;6597;52.218;9.882;2023-04-29T01:25:05;30.73;;;14.57;;
13061;SDS011;6597;52.218;9.882;2023-04-29T01:27:45;28.87;;;13.67;;
13061;SDS011;6597;52.218;9.882;2023-04-29T01:30:30;29.73;;;14.07;;
13061;SDS011;6597;52.218;9.882;2023-04-29T01:33:02;24.50;;;12.77;;
13061;SDS011;6597;52.218;9.882;2023-04-29T01:35:39;27.50;;;13.47;;
13061;SDS011;6597;52.218;9.882;2023-04-29T01:38:15;28.20;;;13.60;;
13061;SDS011;6597;52.218;9.882;2023-04-29T01:41:06;25.23;;;12.30;;
13061;SDS011;6597;52.218;9.882;2023-04-29T01:43:36;25.57;;;11.80;;
13061;SDS011;6597;52.218;9.882;2023-04-29T01:46:16;28.03;;;13.53;;
13061;SDS011;6597;52.218;9.882;2023-04-29T01:48:43;24.27;;;11.37;;
13061;SDS011;6597;52.218;9.882;2023-04-29T01:51:10;22.53;;;12.40;;
13061;SDS011;6597;52.218;9.882;2023-04-29T01:53:37;22.03;;;12.07;;
13061;SDS011;6597;52.218;9.882;2023-04-29T01:56:06;26.87;;;12.73;;
13061;SDS011;6597;52.218;9.882;2023-04-29T01:58:43;23.67;;;11.93;;
13061;SDS011;6597;52.218;9.882;2023-04-29T02:01:29;23.47;;;11.40;;
13061;SDS011;6597;52.218;9.882;2023-04-29T02:03:56;24.20;;;12.13;;
13061;SDS011;6597;52.218;9.882;2023-04-29T02:06:23;26.77;;;11.47;;
13061;SDS011;6597;52.218;9.882;2023-04-29T02:08:55;22.27;;;11.40;;
13061;SDS011;6597;52.218;9.882;2023-04-29T02:11:22;23.30;;;11.77;;
13061;SDS011;6597;52.218;9.882;2023-04-29T02:13:52;22.20;;;11.53;;
13061;SDS011;6597;52.218;9.882;2023-04-29T02:16:20;23.03;;;11.13;;
13061;SDS011;6597;52.218;9.882;2023-04-29T02:18:52;21.87;;;10.60;;
13061;SDS011;6597;52.218;9.882;2023-04-29T02:21:20;20.87;;;10.80;;
13061;SDS011;6597;52.218;9.882;2023-04-29T02:23:46;23.20;;;10.77;;
13061;SDS011;6597;52.218;9.882;2023-04-29T02:26:13;19.43;;;10.47;;
13061;SDS011;6597;52.218;9.882;2023-04-29T02:28:41;21.57;;;10.43;;
13061;SDS011;6597;52.218;9.882;2023-04-29T02:31:08;17.67;;;9.57;;
13061;SDS011;6597;52.218;9.882;2023-04-29T02:33:34;19.60;;;10.07;;
13061;SDS011;6597;52.218;9.882;2023-04-29T02:36:01;18.77;;;10.30;;
13061;SDS011;6597;52.218;9.882;2023-04-29T02:38:28;22.83;;;10.33;;
13061;SDS011;6597;52.218;9.882;2023-04-29T02:40:55;22.37;;;11.43;;
13061;SDS011;6597;52.218;9.882;2023-04-29T02:43:21;24.00;;;11.23;;
13061;SDS011;6597;52.218;9.882;2023-04-29T02:45:49;19.63;;;10.43;;
13061;SDS011;6597;52.218;9.882;2023-04-29T02:48:16;22.00;;;10.93;;
13061;SDS011;6597;52.218;9.882;2023-04-29T02:50:42;23.83;;;11.40;;
13061;SDS011;6597;52.218;9.882;2023-04-29T02:53:09;18.30;;;10.37;;
13061;SDS011;6597;52.218;9.882;2023-04-29T02:55:36;19.97;;;9.90;;
13061;SDS011;6597;52.218;9.882;2023-04-29T02:58:07;18.67;;;9.73;;
13061;SDS011;6597;52.218;9.882;2023-04-29T03:00:33;19.23;;;9.50;;
13061;SDS011;6597;52.218;9.882;2023-04-29T03:03:01;16.63;;;9.17;;
13061;SDS011;6597;52.218;9.882;2023-04-29T03:05:28;13.73;;;6.70;;
13061;SDS011;6597;52.218;9.882;2023-04-29T03:07:54;12.63;;;6.20;;
13061;SDS011;6597;52.218;9.882;2023-04-29T03:10:21;11.63;;;6.00;;
13061;SDS011;6597;52.218;9.882;2023-04-29T03:12:48;10.30;;;5.70;;
13061;SDS011;6597;52.218;9.882;2023-04-29T03:15:14;8.87;;;5.27;;
13061;SDS011;6597;52.218;9.882;2023-04-29T03:17:42;12.00;;;6.30;;
13061;SDS011;6597;52.218;9.882;2023-04-29T03:20:13;13.83;;;7.30;;
13061;SDS011;6597;52.218;9.882;2023-04-29T03:22:39;20.07;;;8.43;;
13061;SDS011;6597;52.218;9.882;2023-04-29T03:25:07;17.63;;;10.00;;
13061;SDS011;6597;52.218;9.882;2023-04-29T03:27:35;18.83;;;10.10;;
13061;SDS011;6597;52.218;9.882;2023-04-29T03:30:02;17.87;;;9.87;;
13061;SDS011;6597;52.218;9.882;2023-04-29T03:32:30;18.60;;;10.03;;
13061;SDS011;6597;52.218;9.882;2023-04-29T03:34:57;23.83;;;11.83;;
13061;SDS011;6597;52.218;9.882;2023-04-29T03:37:32;22.60;;;11.37;;
13061;SDS011;6597;52.218;9.882;2023-04-29T03:40:17;25.00;;;12.40;;
13061;SDS011;6597;52.218;9.882;2023-04-29T03:42:44;28.07;;;11.90;;
13061;SDS011;6597;52.218;9.882;2023-04-29T03:45:10;20.90;;;11.93;;
13061;SDS011;6597;52.218;9.882;2023-04-29T03:47:38;24.93;;;12.60;;
13061;SDS011;6597;52.218;9.882;2023-04-29T03:50:05;25.93;;;14.03;;
13061;SDS011;6597;52.218;9.882;2023-04-29T03:52:35;24.87;;;12.77;;
13061;SDS011;6597;52.218;9.882;2023-04-29T03:55:06;23.07;;;11.93;;
13061;SDS011;6597;52.218;9.882;2023-04-29T03:57:34;23.50;;;12.93;;
13061;SDS011;6597;52.218;9.882;2023-04-29T04:00:00;20.57;;;11.83;;
13061;SDS011;6597;52.218;9.882;2023-04-29T04:02:28;24.17;;;13.27;;
13061;SDS011;6597;52.218;9.882;2023-04-29T04:04:54;20.27;;;12.43;;
13061;SDS011;6597;52.218;9.882;2023-04-29T04:07:23;22.97;;;12.73;;
13061;SDS011;6597;52.218;9.882;2023-04-29T04:10:13;25.50;;;12.60;;
13061;SDS011;6597;52.218;9.882;2023-04-29T04:12:40;22.03;;;12.50;;
13061;SDS011;6597;52.218;9.882;2023-04-29T04:15:09;30.77;;;14.77;;
13061;SDS011;6597;52.218;9.882;2023-04-29T04:17:36;23.27;;;12.33;;
13061;SDS011;6597;52.218;9.882;2023-04-29T04:20:03;25.73;;;14.77;;
13061;SDS011;6597;52.218;9.882;2023-04-29T04:22:30;29.27;;;15.57;;
13061;SDS011;6597;52.218;9.882;2023-04-29T04:25:18;25.87;;;13.67;;
13061;SDS011;6597;52.218;9.882;2023-04-29T04:27:44;26.07;;;14.80;;
13061;SDS011;6597;52.218;9.882;2023-04-29T04:30:21;24.10;;;14.70;;
13061;SDS011;6597;52.218;9.882;2023-04-29T04:32:48;27.47;;;14.70;;
13061;SDS011;6597;52.218;9.882;2023-04-29T04:35:14;32.63;;;15.83;;
13061;SDS011;6597;52.218;9.882;2023-04-29T04:37:42;24.77;;;15.40;;
13061;SDS011;6597;52.218;9.882;2023-04-29T04:40:09;30.23;;;15.77;;
13061;SDS011;6597;52.218;9.882;2023-04-29T04:43:01;32.50;;;17.80;;
13061;SDS011;6597;52.218;9.882;2023-04-29T04:45:28;26.00;;;15.17;;
13061;SDS011;6597;52.218;9.882;2023-04-29T04:47:55;27.97;;;16.07;;
13061;SDS011;6597;52.218;9.882;2023-04-29T04:50:26;28.33;;;16.27;;
13061;SDS011;6597;52.218;9.882;2023-04-29T04:52:53;32.73;;;17.40;;
13061;SDS011;6597;52.218;9.882;2023-04-29T04:55:43;33.33;;;17.37;;
13061;SDS011;6597;52.218;9.882;2023-04-29T04:58:12;34.27;;;17.10;;
13061;SDS011;6597;52.218;9.882;2023-04-29T05:00:42;39.10;;;19.40;;
13061;SDS011;6597;52.218;9.882;2023-04-29T05:03:09;34.87;;;16.83;;
13061;SDS011;6597;52.218;9.882;2023-04-29T05:05:36;32.03;;;18.10;;
13061;SDS011;6597;52.218;9.882;2023-04-29T05:08:02;37.47;;;18.33;;
13061;SDS011;6597;52.218;9.882;2023-04-29T05:10:36;33.77;;;18.20;;
13061;SDS011;6597;52.218;9.882;2023-04-29T05:13:04;38.37;;;19.50;;
13061;SDS011;6597;52.218;9.882;2023-04-29T05:15:33;35.93;;;17.70;;
13061;SDS011;6597;52.218;9.882;2023-04-29T05:18:01;40.03;;;18.83;;
13061;SDS011;6597;52.218;9.882;2023-04-29T05:20:28;34.17;;;18.33;;
13061;SDS011;6597;52.218;9.882;2023-04-29T05:22:55;38.63;;;19.53;;
13061;SDS011;6597;52.218;9.882;2023-04-29T05:25:23;35.60;;;19.30;;
13061;SDS011;6597;52.218;9.882;2023-04-29T05:27:52;34.83;;;19.60;;
13061;SDS011;6597;52.218;9.882;2023-04-29T05:30:20;38.23;;;19.33;;
13061;SDS011;6597;52.218;9.882;2023-04-29T05:32:48;41.17;;;20.33;;
13061;SDS011;6597;52.218;9.882;2023-04-29T05:35:17;38.37;;;21.40;;
13061;SDS011;6597;52.218;9.882;2023-04-29T05:37:44;48.13;;;21.77;;
13061;SDS011;6597;52.218;9.882;2023-04-29T05:40:22;44.47;;;21.57;;
13061;SDS011;6597;52.218;9.882;2023-04-29T05:42:50;50.20;;;23.40;;
13061;SDS011;6597;52.218;9.882;2023-04-29T05:45:17;46.50;;;22.33;;
13061;SDS011;6597;52.218;9.882;2023-04-29T05:47:43;47.67;;;23.13;;
13061;SDS011;6597;52.218;9.882;2023-04-29T05:50:11;57.83;;;26.60;;
13061;SDS011;6597;52.218;9.882;2023-04-29T05:52:38;44.90;;;21.97;;
13061;SDS011;6597;52.218;9.882;2023-04-29T05:55:04;40.73;;;22.47;;
13061;SDS011;6597;52.218;9.882;2023-04-29T05:57:31;43.30;;;23.53;;
13061;SDS011;6597;52.218;9.882;2023-04-29T05:59:58;49.40;;;23.90;;
13061;SDS011;6597;52.218;9.882;2023-04-29T06:02:24;43.70;;;23.67;;
13061;SDS011;6597;52.218;9.882;2023-04-29T06:04:51;44.43;;;22.57;;
13061;SDS011;6597;52.218;9.882;2023-04-29T06:07:25;40.87;;;21.40;;
13061;SDS011;6597;52.218;9.882;2023-04-29T06:10:13;35.27;;;20.27;;
13061;SDS011;6597;52.218;9.882;2023-04-29T06:12:42;38.30;;;19.77;;
13061;SDS011;6597;52.218;9.882;2023-04-29T06:15:08;39.10;;;19.27;;
13061;SDS011;6597;52.218;9.882;2023-04-29T06:17:36;33.67;;;19.37;;
13061;SDS011;6597;52.218;9.882;2023-04-29T06:20:03;37.87;;;19.77;;
13061;SDS011;6597;52.218;9.882;2023-04-29T06:22:31;33.60;;;18.50;;
13061;SDS011;6597;52.218;9.882;2023-04-29T06:24:58;38.03;;;19.60;;
13061;SDS011;6597;52.218;9.882;2023-04-29T06:27:34;33.20;;;18.63;;
13061;SDS011;6597;52.218;9.882;2023-04-29T06:30:00;35.47;;;18.57;;
13061;SDS011;6597;52.218;9.882;2023-04-29T06:32:27;37.33;;;19.57;;
13061;SDS011;6597;52.218;9.882;2023-04-29T06:34:54;33.70;;;18.23;;
13061;SDS011;6597;52.218;9.882;2023-04-29T06:37:27;38.63;;;18.60;;
13061;SDS011;6597;52.218;9.882;2023-04-29T06:40:06;33.00;;;18.30;;
13061;SDS011;6597;52.218;9.882;2023-04-29T06:42:52;39.27;;;20.07;;
13061;SDS011;6597;52.218;9.882;2023-04-29T06:45:57;37.90;;;18.03;;
13061;SDS011;6597;52.218;9.882;2023-04-29T06:48:33;31.63;;;18.30;;
13061;SDS011;6597;52.218;9.882;2023-04-29T06:51:02;39.67;;;18.60;;
13061;SDS011;6597;52.218;9.882;2023-04-29T06:53:29;36.33;;;18.57;;
13061;SDS011;6597;52.218;9.882;2023-04-29T06:55:57;42.70;;;19.10;;
13061;SDS011;6597;52.218;9.882;2023-04-29T06:58:23;31.03;;;16.20;;
13061;SDS011;6597;52.218;9.882;2023-04-29T07:00:50;37.20;;;18.90;;
13061;SDS011;6597;52.218;9.882;2023-04-29T07:03:17;32.07;;;18.00;;
13061;SDS011;6597;52.218;9.882;2023-04-29T07:05:44;32.57;;;17.23;;
13061;SDS011;6597;52.218;9.882;2023-04-29T07:08:11;33.53;;;17.07;;
13061;SDS011;6597;52.218;9.882;2023-04-29T07:10:38;32.23;;;17.53;;
13061;SDS011;6597;52.218;9.882;2023-04-29T07:13:07;27.23;;;16.00;;
13061;SDS011;6597;52.218;9.882;2023-04-29T07:15:34;34.17;;;16.77;;
13061;SDS011;6597;52.218;9.882;2023-04-29T07:18:02;28.03;;;15.77;;
13061;SDS011;6597;52.218;9.882;2023-04-29T07:20:31;27.83;;;14.97;;
13061;SDS011;6597;52.218;9.882;2023-04-29T07:22:57;30.03;;;14.40;;
13061;SDS011;6597;52.218;9.882;2023-04-29T07:25:25;28.50;;;15.60;;
13061;SDS011;6597;52.218;9.882;2023-04-29T07:27:51;32.07;;;15.07;;
13061;SDS011;6597;52.218;9.882;2023-04-29T07:30:19;24.10;;;14.00;;
13061;SDS011;6597;52.218;9.882;2023-04-29T07:32:46;22.87;;;13.80;;
13061;SDS011;6597;52.218;9.882;2023-04-29T07:35:12;23.13;;;14.07;;
13061;SDS011;6597;52.218;9.882;2023-04-29T07:37:40;22.40;;;13.10;;
13061;SDS011;6597;52.218;9.882;2023-04-29T07:40:08;24.67;;;13.87;;
13061;SDS011;6597;52.218;9.882;2023-04-29T07:42:36;28.23;;;13.70;;
13061;SDS011;6597;52.218;9.882;2023-04-29T07:45:05;24.50;;;13.23;;
13061;SDS011;6597;52.218;9.882;2023-04-29T07:47:34;25.00;;;14.77;;
13061;SDS011;6597;52.218;9.882;2023-04-29T07:50:01;24.23;;;13.37;;
13061;SDS011;6597;52.218;9.882;2023-04-29T07:52:27;21.97;;;12.37;;
13061;SDS011;6597;52.218;9.882;2023-04-29T07:54:54;20.53;;;12.33;;
13061;SDS011;6597;52.218;9.882;2023-04-29T07:57:20;19.77;;;12.60;;
13061;SDS011;6597;52.218;9.882;2023-04-29T07:59:49;21.13;;;12.67;;
13061;SDS011;6597;52.218;9.882;2023-04-29T08:02:17;20.53;;;12.20;;
13061;SDS011;6597;52.218;9.882;2023-04-29T08:04:46;21.93;;;13.20;;
13061;SDS011;6597;52.218;9.882;2023-04-29T08:07:15;19.73;;;11.80;;
13061;SDS011;6597;52.218;9.882;2023-04-29T08:09:42;19.60;;;11.13;;
13061;SDS011;6597;52.218;9.882;2023-04-29T08:12:09;18.67;;;11.50;;
13061;SDS011;6597;52.218;9.882;2023-04-29T08:14:38;20.13;;;11.53;;
13061;SDS011;6597;52.218;9.882;2023-04-29T08:17:05;18.47;;;9.97;;
13061;SDS011;6597;52.218;9.882;2023-04-29T08:19:32;15.23;;;9.23;;
13061;SDS011;6597;52.218;9.882;2023-04-29T08:22:00;15.90;;;10.37;;
13061;SDS011;6597;52.218;9.882;2023-04-29T08:24:28;13.73;;;8.63;;
13061;SDS011;6597;52.218;9.882;2023-04-29T08:26:55;21.10;;;9.33;;
13061;SDS011;6597;52.218;9.882;2023-04-29T08:29:23;14.37;;;8.70;;
13061;SDS011;6597;52.218;9.882;2023-04-29T08:31:49;12.23;;;8.07;;
13061;SDS011;6597;52.218;9.882;2023-04-29T08:34:16;14.70;;;8.67;;
13061;SDS011;6597;52.218;9.882;2023-04-29T08:36:42;8.90;;;6.10;;
13061;SDS011;6597;52.218;9.882;2023-04-29T08:41:45;9.73;;;7.30;;
13061;SDS011;6597;52.218;9.882;2023-04-29T08:44:15;13.87;;;7.90;;
13061;SDS011;6597;52.218;9.882;2023-04-29T08:46:42;10.23;;;7.17;;
13061;SDS011;6597;52.218;9.882;2023-04-29T08:49:10;13.00;;;7.37;;
13061;SDS011;6597;52.218;9.882;2023-04-29T08:51:38;11.03;;;6.07;;
13061;SDS011;6597;52.218;9.882;2023-04-29T08:54:04;13.23;;;6.60;;
13061;SDS011;6597;52.218;9.882;2023-04-29T08:56:31;9.33;;;6.13;;
13061;SDS011;6597;52.218;9.882;2023-04-29T08:59:00;7.10;;;5.27;;
13061;SDS011;6597;52.218;9.882;2023-04-29T09:01:28;9.03;;;5.90;;
13061;SDS011;6597;52.218;9.882;2023-04-29T09:04:02;11.27;;;5.97;;
13061;SDS011;6597;52.218;9.882;2023-04-29T09:06:33;10.20;;;5.63;;
13061;SDS011;6597;52.218;9.882;2023-04-29T09:09:00;9.13;;;5.73;;
13061;SDS011;6597;52.218;9.882;2023-04-29T09:11:28;11.33;;;6.20;;
13061;SDS011;6597;52.218;9.882;2023-04-29T09:13:57;10.30;;;6.30;;
13061;SDS011;6597;52.218;9.882;2023-04-29T09:16:26;12.67;;;6.10;;
13061;SDS011;6597;52.218;9.882;2023-04-29T09:18:53;10.17;;;6.27;;
13061;SDS011;6597;52.218;9.882;2023-04-29T09:21:21;8.30;;;5.73;;
13061;SDS011;6597;52.218;9.882;2023-04-29T09:23:49;10.00;;;5.63;;
13061;SDS011;6597;52.218;9.882;2023-04-29T09:26:17;7.50;;;5.40;;
13061;SDS011;6597;52.218;9.882;2023-04-29T09:28:44;8.30;;;5.33;;
13061;SDS011;6597;52.218;9.882;2023-04-29T09:31:12;7.77;;;5.17;;
13061;SDS011;6597;52.218;9.882;2023-04-29T09:33:49;6.90;;;5.07;;
13061;SDS011;6597;52.218;9.882;2023-04-29T09:39:03;9.27;;;4.70;;
13061;SDS011;6597;52.218;9.882;2023-04-29T09:41:35;8.57;;;5.33;;
13061;SDS011;6597;52.218;9.882;2023-04-29T09:44:02;7.50;;;4.97;;
13061;SDS011;6597;52.218;9.882;2023-04-29T09:46:31;8.20;;;5.37;;
13061;SDS011;6597;52.218;9.882;2023-04-29T09:48:59;7.97;;;5.40;;
13061;SDS011;6597;52.218;9.882;2023-04-29T09:51:26;11.27;;;4.67;;
13061;SDS011;6597;52.218;9.882;2023-04-29T09:53:52;10.03;;;4.47;;
13061;SDS011;6597;52.218;9.882;2023-04-29T09:56:19;7.07;;;4.27;;
13061;SDS011;6597;52.218;9.882;2023-04-29T09:58:46;8.23;;;5.33;;
13061;SDS011;6597;52.218;9.882;2023-04-29T10:01:13;7.13;;;4.70;;
13061;SDS011;6597;52.218;9.882;2023-04-29T10:03:43;8.77;;;4.90;;
13061;SDS011;6597;52.218;9.882;2023-04-29T10:06:12;6.87;;;4.97;;
13061;SDS011;6597;52.218;9.882;2023-04-29T10:08:40;8.67;;;5.20;;
13061;SDS011;6597;52.218;9.882;2023-04-29T10:11:06;7.80;;;5.30;;
13061;SDS011;6597;52.218;9.882;2023-04-29T10:13:35;9.47;;;4.97;;
13061;SDS011;6597;52.218;9.882;2023-04-29T10:16:09;6.67;;;4.33;;
13061;SDS011;6597;52.218;9.882;2023-04-29T10:18:41;8.07;;;4.73;;
13061;SDS011;6597;52.218;9.882;2023-04-29T10:21:15;10.83;;;5.20;;
13061;SDS011;6597;52.218;9.882;2023-04-29T10:23:46;8.97;;;4.80;;
13061;SDS011;6597;52.218;9.882;2023-04-29T10:26:13;10.43;;;6.07;;
13061;SDS011;6597;52.218;9.882;2023-04-29T10:28:41;9.57;;;5.33;;
13061;SDS011;6597;52.218;9.882;2023-04-29T10:31:11;7.07;;;5.37;;
13061;SDS011;6597;52.218;9.882;2023-04-29T10:33:40;10.90;;;5.90;;
13061;SDS011;6597;52.218;9.882;2023-04-29T10:36:11;9.80;;;5.30;;
13061;SDS011;6597;52.218;9.882;2023-04-29T10:38:41;11.20;;;6.13;;
13061;SDS011;6597;52.218;9.882;2023-04-29T10:41:13;9.10;;;6.30;;
13061;SDS011;6597;52.218;9.882;2023-04-29T10:43:49;11.40;;;5.73;;
13061;SDS011;6597;52.218;9.882;2023-04-29T10:46:16;8.97;;;5.93;;
13061;SDS011;6597;52.218;9.882;2023-04-29T10:48:43;10.00;;;5.90;;
13061;SDS011;6597;52.218;9.882;2023-04-29T10:51:10;12.23;;;6.00;;
13061;SDS011;6597;52.218;9.882;2023-04-29T10:56:36;11.33;;;5.97;;
13061;SDS011;6597;52.218;9.882;2023-04-29T10:59:04;7.70;;;5.63;;
13061;SDS011;6597;52.218;9.882;2023-04-29T11:01:43;10.07;;;5.90;;
13061;SDS011;6597;52.218;9.882;2023-04-29T11:04:14;11.07;;;5.23;;
13061;SDS011;6597;52.218;9.882;2023-04-29T11:06:46;10.07;;;6.20;;
13061;SDS011;6597;52.218;9.882;2023-04-29T11:09:23;10.13;;;6.03;;
13061;SDS011;6597;52.218;9.882;2023-04-29T11:12:00;6.50;;;5.27;;
13061;SDS011;6597;52.218;9.882;2023-04-29T11:14:30;9.30;;;5.83;;
13061;SDS011;6597;52.218;9.882;2023-04-29T11:17:00;12.57;;;5.20;;
13061;SDS011;6597;52.218;9.882;2023-04-29T11:19:31;10.33;;;6.27;;
13061;SDS011;6597;52.218;9.882;2023-04-29T11:22:02;8.83;;;6.00;;
13061;SDS011;6597;52.218;9.882;2023-04-29T11:24:35;15.77;;;6.50;;
13061;SDS011;6597;52.218;9.882;2023-04-29T11:27:02;15.00;;;7.10;;
13061;SDS011;6597;52.218;9.882;2023-04-29T11:29:29;12.60;;;6.40;;
13061;SDS011;6597;52.218;9.882;2023-04-29T11:31:59;8.43;;;5.10;;
13061;SDS011;6597;52.218;9.882;2023-04-29T11:34:27;7.00;;;4.93;;
13061;SDS011;6597;52.218;9.882;2023-04-29T11:36:53;11.50;;;5.67;;
13061;SDS011;6597;52.218;9.882;2023-04-29T11:39:20;7.07;;;5.13;;
13061;SDS011;6597;52.218;9.882;2023-04-29T11:41:49;7.67;;;5.33;;
13061;SDS011;6597;52.218;9.882;2023-04-29T11:44:20;8.67;;;5.33;;
13061;SDS011;6597;52.218;9.882;2023-04-29T11:46:47;8.43;;;5.93;;
13061;SDS011;6597;52.218;9.882;2023-04-29T11:49:14;6.37;;;4.87;;
13061;SDS011;6597;52.218;9.882;2023-04-29T11:51:40;10.63;;;5.50;;
13061;SDS011;6597;52.218;9.882;2023-04-29T11:54:07;6.07;;;4.50;;
13061;SDS011;6597;52.218;9.882;2023-04-29T11:56:35;6.50;;;4.73;;
13061;SDS011;6597;52.218;9.882;2023-04-29T11:59:04;7.40;;;4.20;;
13061;SDS011;6597;52.218;9.882;2023-04-29T12:01:32;9.97;;;4.80;;
13061;SDS011;6597;52.218;9.882;2023-04-29T12:04:03;9.63;;;4.67;;
13061;SDS011;6597;52.218;9.882;2023-04-29T12:06:32;8.03;;;4.90;;
13061;SDS011;6597;52.218;9.882;2023-04-29T12:08:59;5.87;;;4.23;;
13061;SDS011;6597;52.218;9.882;2023-04-29T12:11:28;9.23;;;4.00;;
13061;SDS011;6597;52.218;9.882;2023-04-29T12:13:55;7.73;;;3.97;;
13061;SDS011;6597;52.218;9.882;2023-04-29T12:16:23;5.30;;;3.83;;
13061;SDS011;6597;52.218;9.882;2023-04-29T12:18:53;10.53;;;4.63;;
13061;SDS011;6597;52.218;9.882;2023-04-29T12:21:20;7.93;;;4.20;;
13061;SDS011;6597;52.218;9.882;2023-04-29T12:23:47;13.90;;;7.47;;
13061;SDS011;6597;52.218;9.882;2023-04-29T12:26:13;6.85;;;4.55;;
13061;SDS011;6597;52.218;9.882;2023-04-29T12:28:40;6.10;;;4.37;;
13061;SDS011;6597;52.218;9.882;2023-04-29T12:31:07;5.88;;;4.22;;
13061;SDS011;6597;52.218;9.882;2023-04-29T12:33:36;11.82;;;5.50;;
13061;SDS011;6597;52.218;9.882;2023-04-29T12:36:03;14.37;;;5.40;;
13061;SDS011;6597;52.218;9.882;2023-04-29T12:38:30;26.08;;;8.52;;
13061;SDS011;6597;52.218;9.882;2023-04-29T12:40:57;20.15;;;7.85;;
13061;SDS011;6597;52.218;9.882;2023-04-29T12:43:25;10.23;;;4.37;;
13061;SDS011;6597;52.218;9.882;2023-04-29T12:45:53;7.18;;;4.32;;
13061;SDS011;6597;52.218;9.882;2023-04-29T12:48:19;8.60;;;5.03;;
13061;SDS011;6597;52.218;9.882;2023-04-29T12:50:48;6.80;;;4.65;;
13061;SDS011;6597;52.218;9.882;2023-04-29T12:53:15;6.95;;;4.45;;
13061;SDS011;6597;52.218;9.882;2023-04-29T12:55:42;6.32;;;3.55;;
13061;SDS011;6597;52.218;9.882;2023-04-29T12:58:08;6.80;;;3.73;;
13061;SDS011;6597;52.218;9.882;2023-04-29T13:00:35;5.67;;;3.83;;
13061;SDS011;6597;52.218;9.882;2023-04-29T13:03:02;6.13;;;3.87;;
13061;SDS011;6597;52.218;9.882;2023-04-29T13:05:29;4.90;;;3.77;;
13061;SDS011;6597;52.218;9.882;2023-04-29T13:07:57;6.87;;;4.40;;
13061;SDS011;6597;52.218;9.882;2023-04-29T13:10:24;4.90;;;3.42;;
13061;SDS011;6597;52.218;9.882;2023-04-29T13:12:52;5.13;;;3.90;;
13061;SDS011;6597;52.218;9.882;2023-04-29T13:15:19;5.05;;;3.72;;
13061;SDS011;6597;52.218;9.882;2023-04-29T13:17:46;6.20;;;4.07;;
13061;SDS011;6597;52.218;9.882;2023-04-29T13:20:12;5.20;;;3.25;;
13061;SDS011;6597;52.218;9.882;2023-04-29T13:22:39;5.90;;;3.77;;
13061;SDS011;6597;52.218;9.882;2023-04-29T13:25:09;4.67;;;3.27;;
13061;SDS011;6597;52.218;9.882;2023-04-29T13:27:36;4.77;;;3.27;;
13061;SDS011;6597;52.218;9.882;2023-04-29T13:30:02;6.03;;;3.33;;
13061;SDS011;6597;52.218;9.882;2023-04-29T13:32:30;5.90;;;3.75;;
13061;SDS011;6597;52.218;9.882;2023-04-29T13:34:56;6.30;;;4.07;;
13061;SDS011;6597;52.218;9.882;2023-04-29T13:37:23;7.57;;;3.92;;
13061;SDS011;6597;52.218;9.882;2023-04-29T13:39:49;8.32;;;3.53;;
13061;SDS011;6597;52.218;9.882;2023-04-29T13:42:17;5.40;;;2.97;;
13061;SDS011;6597;52.218;9.882;2023-04-29T13:44:44;4.57;;;3.00;;
13061;SDS011;6597;52.218;9.882;2023-04-29T13:47:21;8.00;;;3.27;;
13061;SDS011;6597;52.218;9.882;2023-04-29T13:49:48;5.70;;;3.10;;
13061;SDS011;6597;52.218;9.882;2023-04-29T13:52:14;4.30;;;2.80;;
13061;SDS011;6597;52.218;9.882;2023-04-29T13:54:41;6.30;;;3.27;;
13061;SDS011;6597;52.218;9.882;2023-04-29T13:57:07;3.83;;;3.03;;
13061;SDS011;6597;52.218;9.882;2023-04-29T13:59:35;4.47;;;3.07;;
13061;SDS011;6597;52.218;9.882;2023-04-29T14:02:02;7.13;;;3.60;;
13061;SDS011;6597;52.218;9.882;2023-04-29T14:04:28;6.53;;;3.20;;
13061;SDS011;6597;52.218;9.882;2023-04-29T14:06:55;7.13;;;3.63;;
13061;SDS011;6597;52.218;9.882;2023-04-29T14:09:22;6.23;;;3.80;;
13061;SDS011;6597;52.218;9.882;2023-04-29T14:11:49;5.40;;;3.00;;
13061;SDS011;6597;52.218;9.882;2023-04-29T14:14:15;3.70;;;2.97;;
13061;SDS011;6597;52.218;9.882;2023-04-29T14:16:43;5.00;;;2.90;;
13061;SDS011;6597;52.218;9.882;2023-04-29T14:19:11;4.73;;;3.57;;
13061;SDS011;6597;52.218;9.882;2023-04-29T14:21:38;4.20;;;2.77;;
13061;SDS011;6597;52.218;9.882;2023-04-29T14:24:04;5.47;;;3.17;;
13061;SDS011;6597;52.218;9.882;2023-04-29T14:26:31;3.77;;;2.90;;
13061;SDS011;6597;52.218;9.882;2023-04-29T14:28:57;5.33;;;3.30;;
13061;SDS011;6597;52.218;9.882;2023-04-29T14:31:24;4.73;;;3.47;;
13061;SDS011;6597;52.218;9.882;2023-04-29T14:33:54;7.57;;;3.33;;
13061;SDS011;6597;52.218;9.882;2023-04-29T14:36:21;4.10;;;3.37;;
13061;SDS011;6597;52.218;9.882;2023-04-29T14:38:48;4.50;;;3.17;;
13061;SDS011;6597;52.218;9.882;2023-04-29T14:41:15;8.20;;;3.60;;
13061;SDS011;6597;52.218;9.882;2023-04-29T14:43:42;5.57;;;3.00;;
13061;SDS011;6597;52.218;9.882;2023-04-29T14:46:09;5.93;;;3.63;;
13061;SDS011;6597;52.218;9.882;2023-04-29T14:48:36;4.83;;;3.60;;
13061;SDS011;6597;52.218;9.882;2023-04-29T14:51:05;4.73;;;3.30;;
13061;SDS011;6597;52.218;9.882;2023-04-29T14:53:32;5.33;;;3.07;;
13061;SDS011;6597;52.218;9.882;2023-04-29T14:56:10;9.00;;;4.17;;
13061;SDS011;6597;52.218;9.882;2023-04-29T14:58:37;7.03;;;4.60;;
13061;SDS011;6597;52.218;9.882;2023-04-29T15:01:03;5.40;;;3.73;;
13061;SDS011;6597;52.218;9.882;2023-04-29T15:03:30;7.83;;;3.90;;